Time;durP1;ratioP1;P1;durP2;ratioP2;P2;SDS_P1;SDS_P2;PMS_P1;PMS_P2;Temp;Humidity;BMP_temperature;BMP_pressure;BME280_temperature;BME280_humidity;BME280_pressure;Samples;Min_cycle;Max_cycle;Signal;HPM_P1;HPM_P2
2021/12/10 00:00:31;;;;;;;12.73;6.20;;;;;;;-15.22;69.83;100344.66;5152003;27;20457;-58
2021/12/10 00:02:57;;;;;;;;;;;;;;;-15.22;69.52;100353.09;5135023;27;20141;-58
2021/12/10 00:05:29;;;;;;;7.72;3.95;;;;;;;-15.21;69.43;100353.94;5153423;27;20034;-58
2021/12/10 00:07:56;;;;;;;5.63;5.03;;;;;;;-15.31;69.35;100348.31;5153585;27;20091;-59
2021/12/10 00:10:27;;;;;;;18.55;6.07;;;;;;;-15.35;69.36;100355.22;5117468;27;20523;-57
2021/12/10 00:12:53;;;;;;;5.35;4.45;;;;;;;-15.31;69.19;100362.75;5152243;27;20410;-58
2021/12/10 00:15:24;;;;;;;12.20;5.90;;;;;;;-15.32;69.41;100361.94;5152685;27;20043;-59
2021/12/10 00:17:52;;;;;;;13.40;5.25;;;;;;;-15.32;69.07;100356.84;5153243;27;20078;-58
2021/12/10 00:20:19;;;;;;;15.38;7.50;;;;;;;-15.29;68.83;100356.75;5153325;27;20043;-59
2021/12/10 00:22:53;;;;;;;16.88;6.68;;;;;;;-15.29;69.40;100359.28;5152651;27;20389;-57
2021/12/10 00:25:21;;;;;;;15.38;6.65;;;;;;;-15.31;68.79;100358.50;5153390;27;20043;-57
2021/12/10 00:27:49;;;;;;;15.73;5.95;;;;;;;-15.34;68.70;100359.41;5150999;27;20054;-58
2021/12/10 00:30:24;;;;;;;18.77;6.95;;;;;;;-15.33;68.61;100365.31;5153355;27;20091;-59
2021/12/10 00:33:00;;;;;;;14.20;6.45;;;;;;;-15.29;68.55;100363.50;5151513;27;20492;-56
2021/12/10 00:35:32;;;;;;;15.65;6.20;;;;;;;-15.26;68.35;100350.69;5153154;27;20162;-57
2021/12/10 00:37:58;;;;;;;12.73;5.05;;;;;;;-15.31;68.89;100358.50;5158073;27;20042;-58
2021/12/10 00:40:25;;;;;;;16.80;7.03;;;;;;;-15.27;69.25;100349.88;5159919;27;20140;-56
2021/12/10 00:42:51;;;;;;;9.05;4.47;;;;;;;-15.20;69.87;100364.06;5140481;27;20047;-57
2021/12/10 00:45:18;;;;;;;15.20;7.45;;;;;;;-15.20;69.58;100368.31;5158356;27;20606;-58
2021/12/10 00:47:45;;;;;;;19.20;8.07;;;;;;;-15.16;70.09;100367.31;5159669;27;20484;-57
2021/12/10 00:50:18;;;;;;;21.30;8.25;;;;;;;-15.07;69.42;100367.03;5158442;27;20050;-58
2021/12/10 00:52:45;;;;;;;14.55;6.35;;;;;;;-14.92;69.54;100368.22;5159369;27;20042;-59
2021/12/10 00:55:11;;;;;;;18.15;8.80;;;;;;;-14.81;68.64;100360.22;5159183;27;20489;-58
2021/12/10 00:57:37;;;;;;;21.20;8.98;;;;;;;-14.71;68.53;100361.56;5159403;27;20035;-56
2021/12/10 01:00:11;;;;;;;18.73;8.23;;;;;;;-14.69;68.72;100370.81;5159715;27;20135;-57
2021/12/10 01:02:38;;;;;;;19.08;9.35;;;;;;;-14.67;70.58;100365.66;5158303;27;20035;-58
2021/12/10 01:05:05;;;;;;;14.30;6.35;;;;;;;-14.67;69.48;100370.75;5159113;27;20070;-58
2021/12/10 01:07:33;;;;;;;13.60;6.88;;;;;;;-14.68;70.18;100371.63;5158245;27;20058;-58
2021/12/10 01:10:03;;;;;;;13.90;5.82;;;;;;;-14.71;70.77;100382.75;5157957;27;20058;-58
2021/12/10 01:12:37;;;;;;;16.95;7.18;;;;;;;-14.70;69.67;100383.59;5157935;27;20077;-58
2021/12/10 01:23:51;;;;;;;17.75;7.85;;;;;;;-14.54;69.73;100384.72;5157244;27;20037;-56
2021/12/10 01:26:37;;;;;;;15.07;6.05;;;;;;;-14.50;69.45;100377.75;5159007;27;20043;-58
2021/12/10 01:29:04;;;;;;;18.02;9.18;;;;;;;-14.49;69.29;100374.34;5158437;27;20180;-56
2021/12/10 01:31:30;;;;;;;14.93;7.00;;;;;;;-14.48;69.52;100376.00;5157822;27;20087;-57
2021/12/10 01:33:56;;;;;;;20.40;8.18;;;;;;;-14.55;69.46;100382.22;5159336;27;20046;-59
2021/12/10 01:36:22;;;;;;;17.05;7.63;;;;;;;-14.57;69.19;100379.72;5157899;27;20054;-58
2021/12/10 01:38:52;;;;;;;18.90;7.57;;;;;;;-14.61;69.69;100375.63;5158395;27;20080;-58
2021/12/10 01:41:20;;;;;;;18.70;8.77;;;;;;;-14.60;69.79;100377.28;5159173;27;20702;-57
2021/12/10 01:43:50;;;;;;;16.40;7.88;;;;;;;-14.55;69.61;100377.97;5137507;27;20049;-58
2021/12/10 01:46:24;;;;;;;17.27;8.65;;;;;;;-14.56;68.73;100383.09;5137782;27;20484;-56
2021/12/10 01:48:54;;;;;;;18.08;8.38;;;;;;;-14.58;69.38;100378.06;5155887;27;20038;-57
2021/12/10 01:51:24;;;;;;;24.85;7.82;;;;;;;-14.62;69.23;100379.03;5154059;27;20046;-58
2021/12/10 01:53:51;;;;;;;;;;;;;;;-14.65;69.76;100382.53;5137078;27;20544;-58
2021/12/10 01:56:22;;;;;;;11.40;5.07;;;;;;;-14.67;69.39;100378.41;5154372;27;19919;-57
2021/12/10 01:58:48;;;;;;;9.95;5.43;;;;;;;-14.68;69.52;100381.81;5156347;27;20035;-58
2021/12/10 02:01:21;;;;;;;17.80;7.50;;;;;;;-14.67;69.66;100383.50;5155748;27;20060;-57
2021/12/10 02:03:50;;;;;;;18.80;7.60;;;;;;;-14.66;69.74;100377.50;5153711;27;20503;-57
2021/12/10 02:06:16;;;;;;;16.70;6.47;;;;;;;-14.67;69.57;100386.03;5154384;27;20042;-58
2021/12/10 02:08:43;;;;;;;15.80;7.45;;;;;;;-14.67;69.60;100378.41;5137086;27;20096;-58
2021/12/10 02:11:09;;;;;;;9.93;4.72;;;;;;;-14.61;69.83;100382.44;5155324;27;20575;-57
2021/12/10 02:13:36;;;;;;;18.73;8.63;;;;;;;-14.58;69.60;100387.44;5154788;27;20492;-58
2021/12/10 02:16:02;;;;;;;12.77;6.88;;;;;;;-14.46;69.76;100381.88;5155437;27;20134;-58
2021/12/10 02:18:28;;;;;;;21.95;9.13;;;;;;;-14.40;69.38;100376.56;5154627;27;20050;-57
2021/12/10 02:21:03;;;;;;;15.80;9.27;;;;;;;-14.22;67.29;100380.97;5155611;27;20043;-57
2021/12/10 02:23:35;;;;;;;17.33;8.93;;;;;;;-14.24;66.69;100385.28;5154662;27;20512;-58
2021/12/10 02:26:02;;;;;;;18.42;8.15;;;;;;;-14.14;67.24;100379.88;5153734;27;20492;-56
2021/12/10 02:28:28;;;;;;;21.90;9.10;;;;;;;-14.06;66.66;100385.50;5154522;27;20035;-57
2021/12/10 02:30:56;;;;;;;19.65;8.85;;;;;;;-14.01;67.31;100388.72;5155071;27;20039;-57
2021/12/10 02:33:22;;;;;;;16.55;7.93;;;;;;;-14.00;67.14;100395.47;5153827;27;20361;-57
2021/12/10 02:35:48;;;;;;;21.25;9.27;;;;;;;-14.00;67.02;100396.31;5154088;27;20103;-57
2021/12/10 02:38:16;;;;;;;19.42;8.00;;;;;;;-13.90;66.44;100393.41;5155300;27;20046;-58
2021/12/10 02:40:43;;;;;;;14.82;6.78;;;;;;;-13.97;65.60;100392.78;5154658;27;20091;-59
2021/12/10 02:43:12;;;;;;;19.77;7.95;;;;;;;-13.90;65.61;100390.88;5154598;27;20054;-58
2021/12/10 02:45:39;;;;;;;20.30;8.23;;;;;;;-13.86;66.12;100392.41;5155225;27;20547;-56
2021/12/10 02:48:06;;;;;;;21.00;7.25;;;;;;;-13.79;66.55;100399.78;5153361;27;20130;-57
2021/12/10 02:50:33;;;;;;;18.05;8.15;;;;;;;-13.76;66.82;100403.94;5153174;27;20574;-56
2021/12/10 02:53:00;;;;;;;21.63;8.80;;;;;;;-13.63;66.61;100401.72;5154558;27;20079;-56
2021/12/10 02:55:28;;;;;;;22.73;10.40;;;;;;;-13.52;65.99;100402.16;5153301;27;20039;-59
2021/12/10 02:57:57;;;;;;;19.00;9.02;;;;;;;-13.40;65.99;100400.84;5152877;27;20035;-57
2021/12/10 03:00:28;;;;;;;25.40;10.37;;;;;;;-13.27;65.66;100402.81;5153497;27;20094;-57
2021/12/10 03:02:54;;;;;;;29.23;9.57;;;;;;;-13.16;64.55;100407.47;5153769;27;20090;-58
2021/12/10 03:05:20;;;;;;;16.38;9.63;;;;;;;-13.12;65.03;100398.78;5152530;27;20442;-58
2021/12/10 03:07:47;;;;;;;15.65;7.78;;;;;;;-13.04;64.65;100406.16;5153786;27;20030;-59
2021/12/10 03:10:17;;;;;;;23.13;10.10;;;;;;;-13.03;64.12;100412.91;5153835;27;20050;-57
2021/12/10 03:12:44;;;;;;;19.70;8.45;;;;;;;-12.99;64.58;100413.63;5153003;27;20112;-58
2021/12/10 03:15:11;;;;;;;20.98;9.98;;;;;;;-13.05;64.48;100410.44;5154619;27;20047;-58
2021/12/10 03:17:37;;;;;;;16.27;9.75;;;;;;;-13.01;65.17;100412.84;5153927;27;20118;-59
2021/12/10 03:20:07;;;;;;;21.58;9.32;;;;;;;-13.01;64.97;100412.84;5152884;27;20055;-58
2021/12/10 03:22:33;;;;;;;19.48;9.27;;;;;;;-13.00;63.51;100419.59;5154140;27;20451;-57
2021/12/10 03:25:00;;;;;;;21.05;8.68;;;;;;;-12.95;63.71;100415.97;5153040;27;20042;-57
2021/12/10 03:27:26;;;;;;;26.75;9.98;;;;;;;-12.90;64.12;100420.91;5152728;27;20048;-57
2021/12/10 03:29:52;;;;;;;21.50;8.00;;;;;;;-12.88;62.73;100417.41;5153161;27;20137;-58
2021/12/10 03:32:22;;;;;;;25.10;9.77;;;;;;;-12.83;63.07;100410.34;5153813;27;20038;-58
2021/12/10 03:34:51;;;;;;;15.93;8.73;;;;;;;-12.81;62.79;100412.88;5152477;27;20043;-57
2021/12/10 03:37:19;;;;;;;26.52;10.57;;;;;;;-12.87;62.13;100406.28;5152154;27;20045;-57
2021/12/10 03:39:46;;;;;;;27.52;11.40;;;;;;;-12.86;64.01;100409.66;5152746;27;20043;-58
2021/12/10 03:42:12;;;;;;;20.10;9.32;;;;;;;-12.87;64.48;100408.00;5153847;27;20522;-58
2021/12/10 03:44:38;;;;;;;18.95;9.75;;;;;;;-12.85;64.33;100406.22;5153759;27;20121;-58
2021/12/10 03:47:06;;;;;;;21.17;9.32;;;;;;;-12.83;63.77;100415.47;5152931;27;20102;-58
2021/12/10 03:49:32;;;;;;;23.98;10.07;;;;;;;-12.78;63.99;100420.41;5152324;27;20043;-57
2021/12/10 03:51:58;;;;;;;19.52;8.80;;;;;;;-12.72;63.33;100426.97;5152316;27;20091;-58
2021/12/10 03:54:24;;;;;;;22.55;9.68;;;;;;;-12.74;63.37;100418.53;5153775;27;20039;-57
2021/12/10 03:56:51;;;;;;;18.35;9.48;;;;;;;-12.80;63.15;100417.06;5153157;27;20393;-57
2021/12/10 03:59:20;;;;;;;22.60;10.23;;;;;;;-12.88;63.11;100424.19;5151350;27;20182;-58
2021/12/10 04:01:49;;;;;;;18.80;10.40;;;;;;;-12.92;62.88;100420.94;5153260;27;20999;-58
2021/12/10 04:04:27;;;;;;;19.65;8.15;;;;;;;-12.96;63.10;100416.88;5153407;27;20508;-57
2021/12/10 04:06:55;;;;;;;22.85;8.73;;;;;;;-13.06;64.24;100415.56;5152978;27;20038;-57
2021/12/10 04:09:22;;;;;;;21.85;9.93;;;;;;;-13.05;64.30;100423.19;5117309;27;20039;-58
2021/12/10 04:11:48;;;;;;;17.52;9.10;;;;;;;-13.09;63.69;100415.69;5153211;27;20087;-56
2021/12/10 04:14:14;;;;;;;23.80;10.75;;;;;;;-13.05;64.95;100419.81;5153378;27;20049;-59
2021/12/10 04:16:40;;;;;;;23.00;9.27;;;;;;;-13.09;63.63;100428.47;5153083;27;20030;-57
2021/12/10 04:19:09;;;;;;;22.88;9.57;;;;;;;-13.08;64.56;100423.31;5151188;27;20054;-57
2021/12/10 04:56:40;;;;;;;13.07;7.15;;;;;;;-13.31;66.51;100457.41;5151712;27;20054;-59
2021/12/10 04:59:07;;;;;;;16.23;9.60;;;;;;;-13.34;67.65;100467.75;5152510;27;20488;-58
2021/12/10 05:01:35;;;;;;;19.13;9.00;;;;;;;-13.29;65.90;100463.31;5150811;27;20049;-59
2021/12/10 05:04:02;;;;;;;14.00;7.15;;;;;;;-13.22;65.96;100479.16;5134183;27;20057;-59
2021/12/10 05:06:28;;;;;;;22.02;9.52;;;;;;;-13.18;66.03;100478.13;5151877;27;20038;-59
2021/12/10 05:08:54;;;;;;;18.77;9.88;;;;;;;-13.18;65.97;100483.25;5152039;27;20198;-56
2021/12/10 05:11:20;;;;;;;18.60;8.20;;;;;;;-13.09;66.32;100487.16;5152521;27;20039;-58
2021/12/10 05:13:47;;;;;;;21.65;8.68;;;;;;;-13.27;65.80;100476.81;5152303;27;20031;-59
2021/12/10 05:16:15;;;;;;;25.42;9.52;;;;;;;-13.19;65.38;100496.09;5151850;27;20030;-58
2021/12/10 05:18:44;;;;;;;20.80;8.90;;;;;;;-13.25;65.74;100493.81;5152368;27;20042;-59
2021/12/10 05:21:13;;;;;;;19.77;10.38;;;;;;;-13.30;67.16;100494.78;5150188;27;20049;-59
2021/12/10 05:23:39;;;;;;;19.00;8.75;;;;;;;-13.27;66.70;100496.41;5155582;27;20119;-57
2021/12/10 05:26:06;;;;;;;24.98;10.15;;;;;;;-13.18;66.88;100497.72;5156282;27;20072;-59
2021/12/10 05:28:33;;;;;;;29.90;9.10;;;;;;;-13.20;66.37;100502.91;5155982;27;20039;-59
2021/12/10 05:30:59;;;;;;;24.92;10.52;;;;;;;-13.24;65.48;100498.78;5154570;27;20060;-61
2021/12/10 05:33:27;;;;;;;27.40;10.77;;;;;;;-13.21;65.47;100500.41;5155310;27;20568;-61
2021/12/10 05:35:53;;;;;;;25.73;9.38;;;;;;;-13.21;65.40;100506.31;5156119;27;20051;-59
2021/12/10 05:38:21;;;;;;;25.52;10.55;;;;;;;-13.18;64.79;100510.50;5154250;27;20041;-66
2021/12/10 05:40:52;;;;;;;21.83;8.75;;;;;;;-13.22;66.93;100506.41;5155046;27;20034;-59
2021/12/10 05:43:19;;;;;;;21.17;10.27;;;;;;;-13.23;65.18;100491.97;5155828;27;20038;-59
2021/12/10 05:45:46;;;;;;;21.90;9.57;;;;;;;-13.15;66.35;100506.09;5155699;27;20491;-56
2021/12/10 05:48:12;;;;;;;24.50;10.52;;;;;;;-13.05;65.30;100506.59;5155226;27;20049;-55
2021/12/10 05:50:38;;;;;;;15.70;7.07;;;;;;;-13.01;64.61;100509.84;5149511;27;20043;-55
2021/12/10 05:53:05;;;;;;;19.77;9.32;;;;;;;-13.01;65.39;100510.66;5151172;27;20031;-56
2021/12/10 05:55:31;;;;;;;22.92;9.98;;;;;;;-13.08;65.77;100506.72;5152349;27;20055;-51
2021/12/10 05:57:57;;;;;;;23.85;10.57;;;;;;;-13.16;65.75;100507.00;5153358;27;20035;-55
2021/12/10 06:00:32;;;;;;;23.80;11.35;;;;;;;-13.15;66.25;100516.28;5154651;27;20073;-56
2021/12/10 06:02:58;;;;;;;23.17;11.13;;;;;;;-13.10;66.24;100516.97;5153774;27;20140;-54
2021/12/10 06:05:25;;;;;;;27.70;10.40;;;;;;;-13.15;65.38;100518.84;5152782;27;20085;-56
2021/12/10 06:07:51;;;;;;;30.35;9.60;;;;;;;-13.13;66.05;100523.91;5143303;27;20441;-56
2021/12/10 06:10:18;;;;;;;25.10;10.38;;;;;;;-13.15;65.02;100531.59;5155006;27;20046;-56
2021/12/10 06:12:45;;;;;;;29.27;11.48;;;;;;;-13.14;65.07;100525.63;5150974;27;20043;-58
2021/12/10 06:15:12;;;;;;;25.38;9.80;;;;;;;-13.17;65.33;100528.31;5150369;27;20043;-55
2021/12/10 06:17:38;;;;;;;25.10;9.90;;;;;;;-13.28;65.97;100521.09;5151538;27;20042;-58
2021/12/10 06:20:06;;;;;;;25.77;11.80;;;;;;;-13.25;64.90;100524.41;5152225;27;20042;-56
2021/12/10 06:22:32;;;;;;;29.17;11.18;;;;;;;-13.27;66.71;100527.00;5151026;27;20030;-54
2021/12/10 06:24:58;;;;;;;27.67;10.63;;;;;;;-13.29;66.47;100526.25;5149113;27;20112;-53
2021/12/10 06:27:24;;;;;;;25.65;9.93;;;;;;;-13.20;66.76;100530.97;5150827;27;20039;-58
2021/12/10 06:29:49;;;;;;;25.67;9.88;;;;;;;-13.05;65.79;100525.28;5150819;27;20491;-55
2021/12/10 06:32:16;;;;;;;31.30;9.80;;;;;;;-13.08;65.56;100517.75;5144590;27;20035;-53
2021/12/10 06:34:42;;;;;;;25.20;11.48;;;;;;;-13.00;67.12;100527.63;5150177;27;20047;-53
2021/12/10 06:37:08;;;;;;;23.38;8.85;;;;;;;-13.01;65.92;100535.38;5150910;27;20030;-58
2021/12/10 06:39:34;;;;;;;24.58;10.27;;;;;;;-13.09;67.45;100541.59;5153321;27;20326;-57
2021/12/10 06:42:00;;;;;;;24.23;11.27;;;;;;;-13.08;67.18;100540.72;5152550;27;20415;-59
2021/12/10 06:44:26;;;;;;;27.90;12.02;;;;;;;-12.99;66.44;100538.69;5152531;27;20046;-55
2021/12/10 06:46:52;;;;;;;18.00;8.80;;;;;;;-13.02;66.52;100546.47;5150589;27;20035;-59
2021/12/10 06:49:18;;;;;;;27.65;9.75;;;;;;;-13.10;67.39;100546.75;5154133;27;20054;-56
2021/12/10 06:51:45;;;;;;;20.33;8.52;;;;;;;-13.15;66.77;100539.25;5133958;27;20480;-58
2021/12/10 06:54:11;;;;;;;20.05;10.45;;;;;;;-13.08;66.61;100545.81;5150787;27;20043;-58
2021/12/10 06:56:37;;;;;;;17.02;8.60;;;;;;;-13.18;67.08;100546.22;5152974;27;20045;-58
2021/12/10 06:59:05;;;;;;;21.17;7.82;;;;;;;-13.10;66.62;100544.22;5151622;27;20066;-58
2021/12/10 07:01:35;;;;;;;24.70;10.15;;;;;;;-13.10;66.61;100545.03;5152164;27;20453;-60
2021/12/10 07:04:04;;;;;;;26.70;9.35;;;;;;;-13.06;67.48;100540.63;5150753;27;20071;-58
2021/12/10 07:06:31;;;;;;;23.10;9.35;;;;;;;-13.00;67.39;100532.72;5150023;27;20031;-57
2021/12/10 07:08:59;;;;;;;22.38;11.38;;;;;;;-13.02;67.81;100539.66;5131955;27;20397;-57
2021/12/10 07:11:26;;;;;;;19.75;9.73;;;;;;;-12.99;66.96;100523.38;5151517;27;20034;-56
2021/12/10 07:13:54;;;;;;;25.83;7.47;;;;;;;-12.91;66.22;100532.41;5150534;27;20042;-53
2021/12/10 07:16:22;;;;;;;25.88;9.88;;;;;;;-12.89;66.04;100530.59;5152536;27;20039;-55
2021/12/10 07:18:48;;;;;;;27.88;9.98;;;;;;;-12.88;66.46;100531.44;5151599;27;20529;-57
2021/12/10 07:21:14;;;;;;;21.67;11.45;;;;;;;-12.77;67.46;100536.13;5149946;27;20069;-56
2021/12/10 07:23:42;;;;;;;22.67;11.93;;;;;;;-12.75;67.18;100527.50;5150691;27;20488;-55
2021/12/10 07:26:10;;;;;;;25.05;10.07;;;;;;;-12.74;66.94;100533.44;5113041;27;20038;-58
2021/12/10 07:28:35;;;;;;;22.77;10.35;;;;;;;-12.70;66.57;100542.66;5152897;27;20449;-54
2021/12/10 07:31:02;;;;;;;23.73;8.93;;;;;;;-12.71;67.38;100548.63;5149314;27;20031;-55
2021/12/10 07:33:28;;;;;;;23.20;9.60;;;;;;;-12.61;67.52;100530.34;5150099;27;20069;-57
2021/12/10 07:35:54;;;;;;;20.13;6.05;;;;;;;-12.67;67.68;100534.88;5150818;27;20121;-57
2021/12/10 07:38:20;;;;;;;21.42;9.75;;;;;;;-12.58;67.48;100534.50;5150831;27;20126;-56
2021/12/10 07:40:47;;;;;;;16.90;7.85;;;;;;;-12.54;67.67;100538.59;5150420;27;20043;-57
2021/12/10 07:43:13;;;;;;;13.10;8.52;;;;;;;-12.52;68.67;100535.97;5149600;27;20075;-54
2021/12/10 07:45:41;;;;;;;23.88;10.63;;;;;;;-12.54;66.99;100535.19;5146176;27;20091;-56
2021/12/10 07:48:09;;;;;;;16.95;7.75;;;;;;;-12.56;68.18;100540.34;5148354;27;20039;-55
2021/12/10 07:50:39;;;;;;;20.10;10.65;;;;;;;-12.53;68.23;100545.34;5111974;27;20066;-56
2021/12/10 07:53:05;;;;;;;22.13;8.27;;;;;;;-12.53;68.31;100537.69;5148079;27;20054;-55
2021/12/10 07:55:35;;;;;;;12.98;8.85;;;;;;;-12.47;67.63;100539.16;5150321;27;20312;-56
2021/12/10 07:58:04;;;;;;;23.43;9.17;;;;;;;-12.52;68.62;100543.63;5130133;27;20589;-54
2021/12/10 08:00:32;;;;;;;21.83;8.25;;;;;;;-12.54;69.05;100528.38;5132396;27;20042;-58
2021/12/10 08:02:58;;;;;;;13.02;7.43;;;;;;;-12.44;69.58;100533.91;5146877;27;20026;-56
2021/12/10 08:05:24;;;;;;;12.65;7.30;;;;;;;-12.46;69.04;100525.50;5148260;27;20051;-58
2021/12/10 08:07:52;;;;;;;19.70;8.45;;;;;;;-12.29;68.98;100538.41;5149128;27;20053;-55
2021/12/10 08:10:19;;;;;;;15.10;5.40;;;;;;;-12.22;70.41;100533.88;5149862;27;20085;-55
2021/12/10 08:12:45;;;;;;;22.02;8.45;;;;;;;-12.00;69.29;100533.78;5147598;27;20043;-57
2021/12/10 08:15:11;;;;;;;17.65;7.28;;;;;;;-11.98;70.44;100519.22;5149914;27;20492;-60
2021/12/10 08:17:37;;;;;;;14.57;6.97;;;;;;;-11.88;69.51;100535.84;5149948;27;20042;-54
2021/12/10 08:20:05;;;;;;;9.88;5.70;;;;;;;-11.78;70.14;100536.22;5149847;27;20053;-55
2021/12/10 08:22:31;;;;;;;11.95;6.00;;;;;;;-11.72;70.04;100536.78;5146747;27;20074;-54
2021/12/10 08:24:57;;;;;;;13.68;6.35;;;;;;;-11.72;69.77;100536.78;5149726;27;20125;-55
2021/12/10 08:27:23;;;;;;;20.60;9.32;;;;;;;-11.67;70.23;100529.75;5148610;27;20042;-55
2021/12/10 08:29:49;;;;;;;10.30;5.82;;;;;;;-11.63;70.00;100530.44;5147045;27;20045;-57
2021/12/10 08:32:19;;;;;;;12.82;6.00;;;;;;;-11.62;70.43;100526.13;5149151;27;20042;-55
2021/12/10 08:34:47;;;;;;;24.90;8.90;;;;;;;-11.58;70.21;100523.38;5130616;27;20515;-53
2021/12/10 08:37:13;;;;;;;14.25;6.63;;;;;;;-11.53;69.61;100521.47;5111274;27;20034;-56
2021/12/10 08:39:39;;;;;;;13.35;5.82;;;;;;;-11.37;69.21;100534.38;5147006;27;20039;-61
2021/12/10 08:42:06;;;;;;;14.07;6.30;;;;;;;-11.40;69.31;100536.25;5145366;27;20549;-55
2021/12/10 08:44:32;;;;;;;21.15;7.75;;;;;;;-11.33;69.91;100537.63;5144801;27;20550;-54
2021/12/10 08:46:58;;;;;;;12.32;6.47;;;;;;;-11.27;69.42;100534.78;5150268;27;20117;-55
2021/12/10 08:49:24;;;;;;;12.80;7.05;;;;;;;-11.21;69.70;100543.00;5150977;27;20054;-55
2021/12/10 08:51:53;;;;;;;19.75;8.02;;;;;;;-11.12;69.37;100535.81;5149762;27;20034;-56
2021/12/10 08:54:20;;;;;;;9.57;4.40;;;;;;;-11.06;69.72;100532.94;5132605;27;20049;-57
2021/12/10 08:56:47;;;;;;;18.33;7.30;;;;;;;-11.01;69.64;100538.69;5152619;27;20087;-54
2021/12/10 08:59:14;;;;;;;16.35;6.65;;;;;;;-10.88;69.62;100534.66;5153951;27;20047;-57
2021/12/10 09:01:46;;;;;;;19.45;9.15;;;;;;;-10.84;69.34;100535.34;5151944;27;20598;-57
2021/12/10 09:04:12;;;;;;;20.92;9.30;;;;;;;-10.74;68.71;100528.88;5153149;27;20054;-57
2021/12/10 09:06:42;;;;;;;28.65;9.95;;;;;;;-10.70;68.95;100537.25;5150488;27;20038;-56
2021/12/10 09:09:10;;;;;;;20.90;8.85;;;;;;;-10.65;69.05;100530.16;5153227;27;20049;-57
2021/12/10 09:11:39;;;;;;;24.00;12.40;;;;;;;-10.60;68.28;100535.91;5152074;27;20314;-55
2021/12/10 09:14:07;;;;;;;25.50;10.25;;;;;;;-10.57;68.43;100535.75;5151516;27;20385;-56
2021/12/10 09:16:33;;;;;;;14.18;7.00;;;;;;;-10.52;67.92;100538.94;5150938;27;20038;-56
2021/12/10 09:19:02;;;;;;;14.35;6.65;;;;;;;-10.58;67.93;100531.53;5149996;27;20038;-57
2021/12/10 09:21:29;;;;;;;11.55;6.63;;;;;;;-10.57;68.50;100530.63;5133099;27;20120;-54
2021/12/10 09:24:00;;;;;;;16.30;7.68;;;;;;;-10.55;67.91;100536.50;5151504;27;20066;-59
2021/12/10 09:26:27;;;;;;;14.52;7.32;;;;;;;-10.49;67.51;100533.66;5152738;27;20119;-55
2021/12/10 09:28:54;;;;;;;17.25;8.70;;;;;;;-10.44;67.24;100546.22;5154032;27;20046;-54
2021/12/10 09:31:24;;;;;;;18.48;7.70;;;;;;;-10.39;66.98;100542.53;5152604;27;20066;-53
2021/12/10 09:33:56;;;;;;;13.95;7.63;;;;;;;-10.33;66.66;100537.09;5152442;27;20038;-56
2021/12/10 09:36:22;;;;;;;9.00;5.75;;;;;;;-10.35;66.38;100538.06;5152634;27;20047;-56
2021/12/10 09:38:48;;;;;;;12.18;6.78;;;;;;;-10.41;66.98;100541.81;5151129;27;20314;-54
2021/12/10 09:41:16;;;;;;;12.68;6.55;;;;;;;-10.41;66.93;100539.25;5150695;27;20039;-53
2021/12/10 09:43:44;;;;;;;11.30;4.95;;;;;;;-10.38;66.72;100546.78;5153034;27;20034;-52
2021/12/10 09:46:11;;;;;;;13.38;7.00;;;;;;;-10.33;66.12;100541.41;5133962;27;20051;-55
2021/12/10 09:48:38;;;;;;;15.75;8.00;;;;;;;-10.36;66.67;100534.69;5151804;27;20034;-53
2021/12/10 09:51:18;;;;;;;17.55;8.00;;;;;;;-10.41;66.59;100534.09;5150977;27;20545;-61
2021/12/10 09:53:47;;;;;;;14.35;7.40;;;;;;;-10.36;66.78;100539.00;5151936;27;20046;-58
2021/12/10 09:56:14;;;;;;;18.17;7.22;;;;;;;-10.35;66.94;100541.50;5114424;27;20062;-55
2021/12/10 09:58:40;;;;;;;16.10;8.07;;;;;;;-10.27;66.31;100546.22;5150218;27;20519;-58
2021/12/10 10:01:28;;;;;;;11.02;5.90;;;;;;;-10.32;66.63;100537.97;5151266;27;20446;-58
2021/12/10 10:04:00;;;;;;;17.90;7.95;;;;;;;-10.36;66.98;100537.25;5152613;27;20042;-59
2021/12/10 10:06:31;;;;;;;14.65;7.10;;;;;;;-10.31;66.71;100548.13;5152502;27;20634;-58
2021/12/10 10:08:57;;;;;;;10.32;6.20;;;;;;;-10.35;67.73;100544.06;5150291;27;20110;-57
2021/12/10 10:11:27;;;;;;;21.38;8.13;;;;;;;-10.37;67.68;100545.03;5151971;27;20403;-58
2021/12/10 10:13:54;;;;;;;;;;;;;;;-10.29;67.09;100545.50;5153670;27;20039;-58
2021/12/10 10:16:22;;;;;;;9.93;5.82;;;;;;;-10.37;66.88;100542.47;5151909;27;20406;-59
2021/12/10 10:18:50;;;;;;;19.40;8.10;;;;;;;-10.31;67.58;100554.97;5152334;27;20042;-58
2021/12/10 10:21:28;;;;;;;17.98;7.55;;;;;;;-10.23;66.99;100554.56;5150993;27;20100;-55
2021/12/10 10:23:55;;;;;;;21.70;7.60;;;;;;;-10.18;67.01;100565.41;5151240;27;20035;-56
2021/12/10 10:26:31;;;;;;;16.15;8.18;;;;;;;-10.17;67.09;100569.66;5150745;27;20049;-58
2021/12/10 10:29:06;;;;;;;13.52;8.05;;;;;;;-10.34;67.72;100557.69;5150904;27;20512;-58
2021/12/10 10:31:33;;;;;;;13.68;6.93;;;;;;;-10.19;67.30;100574.03;5132929;27;20394;-57
2021/12/10 10:34:01;;;;;;;13.23;7.25;;;;;;;-10.20;67.46;100565.50;5150126;27;20605;-56
2021/12/10 10:36:32;;;;;;;23.50;8.18;;;;;;;-10.09;66.69;100567.53;5151302;27;20486;-60
2021/12/10 10:39:14;;;;;;;12.98;6.43;;;;;;;-10.04;67.04;100568.13;5149989;27;20045;-60
2021/12/10 10:41:42;;;;;;;16.35;7.63;;;;;;;-10.03;66.94;100562.09;5148708;27;20042;-60
2021/12/10 10:44:08;;;;;;;11.82;7.32;;;;;;;-9.99;67.52;100565.34;5149149;27;20031;-58
2021/12/10 10:46:35;;;;;;;13.70;7.03;;;;;;;-9.90;66.19;100567.44;5151377;27;20090;-56
2021/12/10 10:49:03;;;;;;;15.40;7.25;;;;;;;-9.89;66.48;100563.97;5149254;27;20043;-57
2021/12/10 10:51:34;;;;;;;16.35;7.53;;;;;;;-9.92;66.80;100559.00;5149840;27;20123;-58
2021/12/10 10:54:03;;;;;;;18.60;8.25;;;;;;;-9.93;66.36;100562.47;5151359;27;20047;-61
2021/12/10 10:56:31;;;;;;;13.55;7.60;;;;;;;-9.92;66.93;100559.81;5152195;27;20062;-58
2021/12/10 10:59:01;;;;;;;13.75;6.43;;;;;;;-9.91;66.68;100563.19;5151278;27;20449;-59
2021/12/10 11:01:40;;;;;;;15.45;7.63;;;;;;;-9.87;66.66;100575.81;5134032;27;20078;-60
2021/12/10 11:04:28;;;;;;;14.60;8.43;;;;;;;-9.90;66.26;100560.56;5149017;27;20133;-58
2021/12/10 11:07:05;;;;;;;13.02;7.53;;;;;;;-9.87;66.15;100569.84;5151738;27;20142;-57
2021/12/10 11:09:33;;;;;;;10.25;6.13;;;;;;;-9.93;66.81;100559.91;5150995;27;20046;-57
2021/12/10 11:12:05;;;;;;;13.88;6.47;;;;;;;-9.96;66.52;100565.19;5150238;27;20412;-57
2021/12/10 11:14:41;;;;;;;14.18;7.05;;;;;;;-9.92;66.08;100559.00;5117975;27;20043;-52
2021/12/10 11:17:15;;;;;;;15.88;7.95;;;;;;;-9.90;66.56;100565.72;5152737;27;20360;-56
2021/12/10 11:19:54;;;;;;;12.52;6.95;;;;;;;-9.98;66.64;100560.13;5153073;27;20066;-55
2021/12/10 11:22:22;;;;;;;11.18;5.95;;;;;;;-10.00;66.43;100568.81;5150161;27;20495;-56
2021/12/10 11:24:52;;;;;;;12.85;6.25;;;;;;;-10.04;66.64;100569.88;5151408;27;20039;-57
2021/12/10 11:27:19;;;;;;;16.20;6.85;;;;;;;-9.99;66.97;100576.44;5150164;27;20043;-57
2021/12/10 11:29:50;;;;;;;10.48;5.68;;;;;;;-10.04;67.02;100580.13;5150657;27;20054;-56
2021/12/10 11:32:22;;;;;;;16.52;7.35;;;;;;;-9.93;66.80;100578.69;5148975;27;20046;-57
2021/12/10 11:35:12;;;;;;;19.90;9.02;;;;;;;-9.96;66.42;100575.44;5147616;27;20121;-57
2021/12/10 11:37:49;;;;;;;18.65;8.07;;;;;;;-9.91;66.14;100574.31;5148199;27;20053;-57
2021/12/10 11:40:31;;;;;;;19.65;7.57;;;;;;;-9.94;65.76;100574.47;5148505;27;20042;-56
2021/12/10 11:43:03;;;;;;;8.93;5.60;;;;;;;-9.99;65.84;100576.44;5130183;27;20077;-58
2021/12/10 11:45:50;;;;;;;18.55;8.45;;;;;;;-9.93;66.70;100577.88;5129867;27;20047;-57
2021/12/10 11:49:28;;;;;;;21.35;10.60;;;;;;;-9.95;65.98;100583.06;5116578;27;20050;-55
2021/12/10 11:51:59;;;;;;;15.38;8.63;;;;;;;-9.96;66.02;100576.28;5130187;27;20718;-58
2021/12/10 11:54:35;;;;;;;19.98;10.30;;;;;;;-10.02;66.24;100579.16;5130106;27;20579;-59
2021/12/10 11:57:29;;;;;;;16.92;9.70;;;;;;;-9.98;65.82;100574.69;5127333;27;20043;-56
2021/12/10 12:00:18;;;;;;;22.25;9.95;;;;;;;-9.98;66.24;100579.81;5131765;27;20054;-55